createdAt,value
2018-05-29T00:00:19.069Z,18.92
2018-05-29T00:03:22.394Z,18.85
2018-05-29T00:06:26.488Z,18.74
2018-05-29T00:09:29.819Z,18.64
2018-05-29T00:12:33.116Z,18.53
2018-05-29T00:15:36.452Z,18.43
2018-05-29T00:18:39.768Z,18.43
2018-05-29T00:21:43.070Z,18.46
2018-05-29T00:24:46.417Z,18.58
2018-05-29T00:27:49.764Z,18.65
2018-05-29T00:30:53.868Z,18.74
2018-05-29T00:33:57.195Z,18.84
2018-05-29T00:37:01.311Z,18.79
2018-05-29T00:40:04.633Z,18.76
2018-05-29T00:43:07.950Z,18.72
2018-05-29T00:46:11.251Z,18.76
2018-05-29T00:49:14.600Z,18.85
2018-05-29T00:52:17.936Z,18.88
2018-05-29T00:55:42.006Z,18.91
2018-05-29T00:58:45.313Z,18.89
2018-05-29T01:01:48.651Z,18.90
2018-05-29T01:04:52.754Z,18.89
2018-05-29T01:07:56.081Z,18.78
2018-05-29T01:10:59.416Z,18.69
2018-05-29T01:14:02.749Z,18.57
2018-05-29T01:17:06.837Z,18.49
2018-05-29T01:20:10.178Z,18.43
2018-05-29T01:23:13.489Z,18.42
2018-05-29T01:26:16.818Z,18.38
2018-05-29T01:29:20.106Z,18.30
2018-05-29T01:32:23.423Z,18.27
2018-05-29T01:35:27.552Z,18.28
2018-05-29T01:38:30.874Z,18.26
2018-05-29T01:41:34.192Z,18.30
2018-05-29T01:44:37.523Z,18.36
2018-05-29T01:47:40.827Z,18.39
2018-05-29T01:50:44.933Z,18.46
2018-05-29T01:53:48.244Z,18.45
2018-05-29T01:56:51.571Z,18.47
2018-05-29T01:59:54.897Z,18.50
2018-05-29T02:02:58.222Z,18.49
2018-05-29T02:06:01.553Z,18.48
2018-05-29T02:09:05.810Z,18.50
2018-05-29T02:12:09.143Z,18.52
2018-05-29T02:15:13.265Z,18.49
2018-05-29T02:18:17.352Z,18.39
2018-05-29T02:21:20.694Z,18.39
2018-05-29T02:24:24.009Z,18.36
2018-05-29T02:27:27.300Z,18.34
2018-05-29T02:30:30.670Z,18.39
2018-05-29T02:33:34.751Z,18.43
2018-05-29T02:36:38.054Z,18.44
2018-05-29T02:39:42.162Z,18.41
2018-05-29T02:42:45.495Z,18.35
2018-05-29T02:45:49.604Z,18.33
2018-05-29T02:48:52.930Z,18.36
2018-05-29T02:51:56.270Z,18.37
2018-05-29T02:54:59.574Z,18.33
2018-05-29T02:58:03.676Z,18.35
2018-05-29T03:01:07.050Z,18.31
2018-05-29T03:04:10.358Z,18.31
2018-05-29T03:07:13.709Z,18.32
2018-05-29T03:10:17.040Z,18.31
2018-05-29T03:13:20.375Z,18.27
2018-05-29T03:16:24.478Z,18.22
2018-05-29T03:19:27.788Z,18.23
2018-05-29T03:22:31.897Z,18.23
2018-05-29T03:25:35.991Z,18.15
2018-05-29T03:28:39.312Z,18.18
2018-05-29T03:31:43.404Z,18.26
2018-05-29T03:34:46.746Z,18.23
2018-05-29T03:37:50.075Z,18.16
2018-05-29T03:40:53.405Z,18.16
2018-05-29T03:43:56.733Z,18.12
2018-05-29T03:47:00.049Z,18.09
2018-05-29T03:50:03.381Z,18.20
2018-05-29T03:53:06.694Z,18.21
2018-05-29T03:56:10.767Z,18.21
2018-05-29T03:59:14.110Z,18.20
2018-05-29T04:02:17.437Z,18.25
2018-05-29T04:05:21.746Z,18.31
2018-05-29T04:08:25.061Z,18.31
2018-05-29T04:11:28.844Z,18.40
2018-05-29T04:14:32.165Z,18.52
2018-05-29T04:17:35.506Z,18.53
2018-05-29T04:20:38.834Z,18.54
2018-05-29T04:23:42.128Z,18.56
2018-05-29T04:26:45.504Z,18.57
2018-05-29T04:29:49.575Z,18.65
2018-05-29T04:32:53.570Z,18.64
2018-05-29T04:35:56.893Z,18.65
2018-05-29T04:39:00.210Z,18.70
2018-05-29T04:42:03.542Z,18.66
2018-05-29T04:45:06.833Z,18.65
2018-05-29T04:48:10.217Z,18.66
2018-05-29T04:51:13.560Z,18.74
2018-05-29T04:54:16.882Z,18.74
2018-05-29T04:57:20.219Z,18.76
2018-05-29T05:00:23.540Z,18.77
2018-05-29T05:03:26.907Z,18.73
2018-05-29T05:06:30.244Z,18.78
2018-05-29T05:09:33.573Z,18.76
2018-05-29T05:12:36.923Z,18.67
2018-05-29T05:15:40.264Z,18.72
2018-05-29T05:18:43.594Z,18.75
2018-05-29T05:21:46.946Z,18.69
2018-05-29T05:24:50.331Z,18.65
2018-05-29T05:27:53.664Z,18.62
2018-05-29T05:30:57.769Z,18.63
2018-05-29T05:34:01.094Z,18.60
2018-05-29T05:37:04.475Z,18.65
2018-05-29T05:40:08.569Z,18.68
2018-05-29T05:43:11.872Z,18.55
2018-05-29T05:46:15.187Z,18.52
2018-05-29T05:49:18.521Z,18.56
2018-05-29T05:52:21.863Z,18.49
2018-05-29T05:55:26.705Z,18.47
2018-05-29T05:58:30.797Z,18.45
2018-05-29T06:01:34.100Z,18.43
2018-05-29T06:04:37.444Z,18.40
2018-05-29T06:07:40.850Z,18.25
2018-05-29T06:10:44.152Z,18.11
2018-05-29T06:13:47.495Z,18.06
2018-05-29T06:16:52.355Z,17.96
2018-05-29T06:19:55.694Z,17.92
2018-05-29T06:22:59.037Z,17.92
2018-05-29T06:26:02.365Z,17.88
2018-05-29T06:29:05.679Z,17.87
2018-05-29T06:32:08.973Z,17.77
2018-05-29T06:35:12.766Z,17.70
2018-05-29T06:38:16.179Z,17.73
2018-05-29T06:41:19.698Z,17.80
2018-05-29T06:44:23.796Z,17.79
2018-05-29T06:47:27.128Z,17.85
2018-05-29T06:50:31.269Z,17.95
2018-05-29T06:53:34.630Z,17.93
2018-05-29T06:56:38.704Z,18.00
2018-05-29T06:59:42.049Z,18.14
2018-05-29T07:02:46.137Z,18.17
2018-05-29T07:05:49.430Z,18.10
2018-05-29T07:08:53.535Z,18.07
2018-05-29T07:11:56.881Z,18.07
2018-05-29T07:15:00.205Z,18.16
2018-05-29T07:18:03.546Z,18.23
2018-05-29T07:21:06.878Z,18.20
2018-05-29T07:24:10.163Z,18.14
2018-05-29T07:27:13.546Z,18.10
2018-05-29T07:30:16.859Z,18.10
2018-05-29T07:33:20.189Z,18.12
2018-05-29T07:36:23.527Z,18.17
2018-05-29T07:39:27.647Z,18.22
2018-05-29T07:42:30.997Z,18.25
2018-05-29T07:45:34.321Z,18.34
2018-05-29T07:48:37.655Z,18.41
2018-05-29T07:51:40.996Z,18.43
2018-05-29T07:54:44.305Z,18.40
2018-05-29T07:57:47.645Z,18.38
2018-05-29T08:00:50.986Z,18.40
2018-05-29T08:03:54.327Z,18.36
2018-05-29T08:06:57.675Z,18.37
2018-05-29T08:10:00.989Z,18.42
2018-05-29T08:13:04.323Z,18.45
2018-05-29T08:16:07.656Z,18.47
2018-05-29T08:19:10.981Z,18.50
2018-05-29T08:22:14.303Z,18.55
2018-05-29T08:25:17.655Z,18.61
2018-05-29T08:28:20.957Z,18.67
2018-05-29T08:31:25.062Z,18.78
2018-05-29T08:34:28.416Z,18.87
2018-05-29T08:37:31.749Z,18.99
2018-05-29T08:40:35.103Z,19.20
2018-05-29T08:43:38.436Z,19.42
2018-05-29T08:46:41.794Z,19.64
2018-05-29T08:49:45.215Z,19.82
2018-05-29T08:52:48.531Z,19.99
2018-05-29T08:55:51.881Z,20.00
2018-05-29T08:58:55.218Z,19.98
2018-05-29T09:01:58.529Z,19.94
2018-05-29T09:05:01.866Z,20.04
2018-05-29T09:08:05.207Z,20.18
2018-05-29T09:11:08.617Z,20.34
2018-05-29T09:14:11.929Z,20.50
2018-05-29T09:17:15.276Z,20.67
2018-05-29T09:20:19.313Z,20.91
2018-05-29T09:23:22.710Z,21.03
2018-05-29T09:26:26.032Z,21.12
2018-05-29T09:29:29.385Z,21.25
2018-05-29T09:32:32.706Z,21.38
2018-05-29T09:35:36.042Z,21.56
2018-05-29T09:38:40.213Z,21.71
2018-05-29T09:41:43.531Z,21.86
2018-05-29T09:44:47.642Z,22.02
2018-05-29T09:47:51.033Z,22.13
2018-05-29T09:50:56.049Z,22.09
2018-05-29T09:53:59.398Z,22.22
2018-05-29T09:57:03.556Z,22.19
2018-05-29T10:00:06.927Z,22.18
2018-05-29T10:03:10.261Z,22.30
2018-05-29T10:06:13.929Z,22.35
2018-05-29T10:09:17.243Z,22.49
2018-05-29T10:12:23.479Z,22.41
2018-05-29T10:15:27.575Z,22.46
2018-05-29T10:18:31.711Z,22.56
2018-05-29T10:21:35.034Z,22.61
2018-05-29T10:24:38.420Z,22.70
2018-05-29T10:27:42.469Z,22.72
2018-05-29T10:30:45.780Z,22.90
2018-05-29T10:33:49.131Z,22.93
2018-05-29T10:36:52.444Z,23.06
2018-05-29T10:39:55.803Z,23.21
2018-05-29T10:42:59.175Z,23.30
2018-05-29T10:46:03.275Z,23.33
2018-05-29T10:49:07.344Z,23.31
2018-05-29T10:52:10.668Z,23.39
2018-05-29T10:55:14.017Z,23.51
2018-05-29T10:58:17.619Z,23.55
2018-05-29T11:01:20.986Z,23.51
2018-05-29T11:04:25.093Z,23.57
2018-05-29T11:07:28.428Z,23.70
2018-05-29T11:10:31.785Z,23.81
2018-05-29T11:13:35.134Z,23.80
2018-05-29T11:16:38.461Z,23.68
2018-05-29T11:19:41.821Z,23.65
2018-05-29T11:22:45.133Z,23.52
2018-05-29T11:25:48.489Z,23.61
2018-05-29T11:28:52.566Z,23.68
2018-05-29T11:31:55.879Z,23.70
2018-05-29T11:34:59.987Z,23.66
2018-05-29T11:38:03.371Z,23.73
2018-05-29T11:41:06.705Z,23.78
2018-05-29T11:44:10.878Z,23.84
2018-05-29T11:47:14.206Z,24.02
2018-05-29T11:50:18.312Z,24.19
2018-05-29T11:53:21.647Z,24.28
2018-05-29T11:56:24.991Z,24.40
2018-05-29T11:59:28.329Z,24.47
2018-05-29T12:02:32.469Z,24.60
2018-05-29T12:05:35.794Z,24.57
2018-05-29T12:08:39.836Z,24.57
2018-05-29T12:11:43.991Z,24.65
2018-05-29T12:14:47.497Z,24.58
2018-05-29T12:17:50.841Z,24.57
2018-05-29T12:20:54.201Z,24.58
2018-05-29T12:23:57.531Z,24.57
2018-05-29T12:27:03.747Z,24.64
2018-05-29T12:30:07.073Z,24.70
2018-05-29T12:33:11.064Z,24.76
2018-05-29T12:36:14.381Z,24.87
2018-05-29T12:39:19.066Z,24.91
2018-05-29T12:42:22.397Z,24.95
2018-05-29T12:45:25.759Z,24.97
2018-05-29T12:48:29.119Z,25.05
2018-05-29T12:51:32.464Z,25.09
2018-05-29T12:54:35.802Z,25.08
2018-05-29T12:57:39.148Z,25.04
2018-05-29T13:00:42.482Z,25.16
2018-05-29T13:03:45.908Z,25.26
2018-05-29T13:06:50.011Z,25.30
2018-05-29T13:09:53.370Z,25.36
2018-05-29T13:12:56.709Z,25.37
2018-05-29T13:16:00.102Z,25.38
2018-05-29T13:19:03.512Z,25.50
2018-05-29T13:22:07.649Z,25.64
2018-05-29T13:25:10.991Z,25.68
2018-05-29T13:28:14.295Z,25.62
2018-05-29T13:31:18.774Z,25.64
2018-05-29T13:34:22.223Z,25.68
2018-05-29T13:37:25.612Z,25.84
2018-05-29T13:40:28.969Z,25.88
2018-05-29T13:43:32.284Z,25.96
2018-05-29T13:46:35.655Z,26.03
2018-05-29T13:49:38.995Z,26.06
2018-05-29T13:52:42.345Z,26.09
2018-05-29T13:55:45.665Z,26.06
2018-05-29T13:58:48.998Z,25.83
2018-05-29T14:01:52.369Z,25.87
2018-05-29T14:04:55.737Z,25.92
2018-05-29T14:07:59.048Z,25.99
2018-05-29T14:11:02.425Z,25.95
2018-05-29T14:14:05.759Z,25.86
2018-05-29T14:17:09.111Z,25.77
2018-05-29T14:20:12.452Z,25.77
2018-05-29T14:23:15.793Z,25.87
2018-05-29T14:26:19.942Z,25.93
2018-05-29T14:29:23.308Z,26.02
2018-05-29T14:32:27.386Z,26.20
2018-05-29T14:35:30.741Z,26.20
2018-05-29T14:38:34.911Z,26.15
2018-05-29T14:41:38.272Z,26.18
2018-05-29T14:44:41.588Z,26.17
2018-05-29T14:47:44.933Z,26.26
2018-05-29T14:50:48.350Z,26.25
2018-05-29T14:53:51.707Z,26.12
2018-05-29T14:56:55.871Z,26.01
2018-05-29T14:59:59.224Z,26.02
2018-05-29T15:03:03.352Z,26.02
2018-05-29T15:06:06.818Z,25.98
2018-05-29T15:09:11.159Z,26.43
2018-05-29T15:12:14.481Z,26.66
2018-05-29T15:15:17.790Z,27.19
2018-05-29T15:18:21.159Z,27.43
2018-05-29T15:21:24.478Z,27.69
2018-05-29T15:24:27.816Z,27.91
2018-05-29T15:27:31.144Z,28.17
2018-05-29T15:30:34.519Z,28.38
2018-05-29T15:33:37.833Z,28.69
2018-05-29T15:36:41.953Z,28.81
2018-05-29T15:39:45.289Z,28.62
2018-05-29T15:42:48.625Z,28.41
2018-05-29T15:45:51.932Z,28.18
2018-05-29T15:48:56.038Z,28.20
2018-05-29T15:52:00.125Z,28.46
2018-05-29T15:55:03.968Z,28.79
2018-05-29T15:58:07.310Z,28.85
2018-05-29T16:01:10.670Z,28.83
2018-05-29T16:04:13.994Z,28.68
2018-05-29T16:07:17.346Z,28.56
2018-05-29T16:10:21.426Z,28.20
2018-05-29T16:13:24.780Z,28.37
2018-05-29T16:16:28.095Z,28.28
2018-05-29T16:19:31.449Z,28.36
2018-05-29T16:22:36.470Z,28.15
2018-05-29T16:25:39.833Z,28.13
2018-05-29T16:28:43.165Z,28.00
2018-05-29T16:31:46.527Z,28.05
2018-05-29T16:34:49.865Z,27.93
2018-05-29T16:37:53.179Z,27.87
2018-05-29T16:40:56.530Z,27.76
2018-05-29T16:43:59.888Z,27.75
2018-05-29T16:47:03.200Z,27.86
2018-05-29T16:50:06.582Z,27.91
2018-05-29T16:53:09.891Z,27.91
2018-05-29T16:56:13.235Z,28.04
2018-05-29T16:59:17.349Z,27.88
2018-05-29T17:02:20.702Z,27.68
2018-05-29T17:05:24.026Z,27.54
2018-05-29T17:08:27.383Z,27.38
2018-05-29T17:11:30.730Z,27.21
2018-05-29T17:14:34.067Z,26.65
2018-05-29T17:17:37.400Z,25.83
2018-05-29T17:20:40.744Z,25.23
2018-05-29T17:23:44.821Z,24.82
2018-05-29T17:26:48.177Z,24.54
2018-05-29T17:29:51.487Z,24.28
2018-05-29T17:32:54.825Z,24.09
2018-05-29T17:35:58.184Z,23.93
2018-05-29T17:39:01.553Z,23.81
2018-05-29T17:42:04.953Z,23.72
2018-05-29T17:45:08.370Z,23.63
2018-05-29T17:48:12.446Z,23.55
2018-05-29T17:51:16.602Z,23.49
2018-05-29T17:54:19.913Z,23.43
2018-05-29T17:57:23.269Z,23.37
2018-05-29T18:00:26.588Z,23.22
2018-05-29T18:03:30.681Z,23.19
2018-05-29T18:06:34.005Z,23.12
2018-05-29T18:09:37.341Z,23.08
2018-05-29T18:12:40.653Z,22.98
2018-05-29T18:15:44.804Z,22.94
2018-05-29T18:18:48.135Z,22.87
2018-05-29T18:21:51.478Z,22.84
2018-05-29T18:24:54.806Z,22.71
2018-05-29T18:27:58.147Z,22.71
2018-05-29T18:31:02.273Z,22.63
2018-05-29T18:34:05.593Z,22.57
2018-05-29T18:37:08.951Z,22.57
2018-05-29T18:40:13.063Z,22.47
2018-05-29T18:43:16.401Z,22.40
2018-05-29T18:46:19.761Z,22.37
2018-05-29T18:49:23.850Z,22.27
2018-05-29T18:52:27.172Z,22.20
2018-05-29T18:55:30.514Z,22.10
2018-05-29T18:58:33.875Z,22.08
2018-05-29T19:01:37.978Z,22.07
2018-05-29T19:04:42.098Z,21.97
2018-05-29T19:07:46.179Z,21.87
2018-05-29T19:10:49.569Z,21.87
2018-05-29T19:13:52.952Z,21.76
2018-05-29T19:16:56.720Z,21.73
2018-05-29T19:20:00.025Z,21.70
2018-05-29T19:23:03.430Z,21.70
2018-05-29T19:26:06.781Z,21.63
2018-05-29T19:29:10.137Z,21.58
2018-05-29T19:32:13.440Z,21.49
2018-05-29T19:35:16.840Z,21.44
2018-05-29T19:38:20.218Z,21.41
2018-05-29T19:41:23.574Z,21.36
2018-05-29T19:44:26.942Z,21.27
2018-05-29T19:47:30.302Z,21.27
2018-05-29T19:50:34.382Z,21.17
2018-05-29T19:53:38.547Z,21.09
2018-05-29T19:56:41.873Z,21.07
2018-05-29T19:59:45.228Z,21.02
2018-05-29T20:02:48.563Z,20.99
2018-05-29T20:05:51.920Z,20.92
2018-05-29T20:08:55.244Z,20.87
2018-05-29T20:11:58.544Z,20.87
2018-05-29T20:15:01.929Z,20.84
2018-05-29T20:18:06.045Z,20.78
2018-05-29T20:21:09.465Z,20.70
2018-05-29T20:24:12.795Z,20.66
2018-05-29T20:27:16.653Z,20.59
2018-05-29T20:30:20.013Z,20.57
2018-05-29T20:33:23.331Z,20.53
2018-05-29T20:36:26.711Z,20.49
2018-05-29T20:39:30.048Z,20.47
2018-05-29T20:42:33.427Z,20.48
2018-05-29T20:45:36.751Z,20.39
2018-05-29T20:48:40.129Z,20.38
2018-05-29T20:51:43.465Z,20.35
2018-05-29T20:54:47.643Z,20.36
2018-05-29T20:57:50.972Z,20.31
2018-05-29T21:00:54.312Z,20.27
2018-05-29T21:03:57.631Z,20.28
2018-05-29T21:07:00.988Z,20.19
2018-05-29T21:10:04.369Z,20.18
2018-05-29T21:13:08.480Z,20.19
2018-05-29T21:16:12.564Z,20.15
2018-05-29T21:19:15.924Z,20.14
2018-05-29T21:22:19.246Z,20.11
2018-05-29T21:25:22.604Z,20.03
2018-05-29T21:28:25.910Z,20.03
2018-05-29T21:31:29.261Z,20.03
2018-05-29T21:34:32.572Z,20.01
2018-05-29T21:37:44.669Z,19.91
2018-05-29T21:40:48.024Z,19.94
2018-05-29T21:43:51.378Z,19.89
2018-05-29T21:46:54.753Z,19.87
2018-05-29T21:49:58.883Z,19.79
2018-05-29T21:53:03.090Z,19.77
2018-05-29T21:56:07.820Z,19.79
2018-05-29T21:59:11.868Z,19.72
2018-05-29T22:02:15.324Z,19.68
2018-05-29T22:05:19.373Z,19.67
2018-05-29T22:08:22.760Z,19.58
2018-05-29T22:11:26.088Z,19.53
2018-05-29T22:14:29.433Z,19.46
2018-05-29T22:17:33.514Z,19.39
2018-05-29T22:20:36.859Z,19.39
2018-05-29T22:23:40.967Z,19.37
2018-05-29T22:26:45.071Z,19.33
2018-05-29T22:29:49.814Z,19.32
2018-05-29T22:32:53.904Z,19.28
2018-05-29T22:35:57.221Z,19.19
2018-05-29T22:39:01.317Z,19.21
2018-05-29T22:42:05.393Z,19.13
2018-05-29T22:45:08.759Z,19.15
2018-05-29T22:48:12.096Z,19.21
2018-05-29T22:51:15.448Z,19.18
2018-05-29T22:54:18.779Z,19.09
2018-05-29T22:57:22.106Z,19.06
2018-05-29T23:00:25.417Z,19.07
2018-05-29T23:03:29.527Z,19.03
2018-05-29T23:06:33.600Z,19.00
2018-05-29T23:09:36.950Z,18.98
2018-05-29T23:12:41.029Z,18.91
2018-05-29T23:15:44.419Z,18.85
2018-05-29T23:18:47.812Z,18.75
2018-05-29T23:21:51.165Z,18.78
2018-05-29T23:24:54.473Z,18.76
2018-05-29T23:27:57.840Z,18.70
2018-05-29T23:31:01.972Z,18.63
2018-05-29T23:34:05.310Z,18.58
2018-05-29T23:37:08.688Z,18.62
2018-05-29T23:40:12.071Z,18.58
2018-05-29T23:43:15.379Z,18.47
2018-05-29T23:46:18.719Z,18.47
2018-05-29T23:49:22.037Z,18.49
2018-05-29T23:52:26.151Z,18.51
2018-05-29T23:55:30.236Z,18.49
2018-05-29T23:58:33.573Z,18.44
